Time;durP1;ratioP1;P1;durP2;ratioP2;P2;SDS_P1;SDS_P2;PMS_P1;PMS_P2;Temp;Humidity;BMP_temperature;BMP_pressure;BME280_temperature;BME280_humidity;BME280_pressure;Samples;Min_cycle;Max_cycle;Signal;HPM_P1;HPM_P2
2022/08/15 00:02:23;;;;;;;4.10;3.40;;;16.60;99.90;;;;;;5092852;28;20047;-49
2022/08/15 00:05:14;;;;;;;4.55;3.70;;;16.60;99.90;;;;;;5091544;28;20036;-49
2022/08/15 00:07:42;;;;;;;6.70;3.80;;;16.60;99.90;;;;;;5093021;28;20040;-49
2022/08/15 00:10:17;;;;;;;5.57;3.65;;;16.60;99.90;;;;;;5092264;28;20430;-49
2022/08/15 00:13:21;;;;;;;4.93;3.40;;;16.80;99.90;;;;;;5091819;28;20485;-49
2022/08/15 00:15:51;;;;;;;5.00;3.50;;;16.80;99.90;;;;;;5092224;28;20130;-48
2022/08/15 00:18:19;;;;;;;5.43;3.58;;;16.80;99.90;;;;;;5092215;28;20043;-50
2022/08/15 00:20:47;;;;;;;6.00;3.67;;;16.90;99.90;;;;;;5091224;28;20056;-49
2022/08/15 00:23:19;;;;;;;8.48;4.13;;;16.80;99.90;;;;;;5092006;28;20138;-49
2022/08/15 00:25:53;;;;;;;5.88;4.15;;;16.90;99.90;;;;;;5092329;28;20456;-49
2022/08/15 00:28:25;;;;;;;5.63;3.80;;;16.90;99.90;;;;;;5091609;28;20518;-51
2022/08/15 00:31:10;;;;;;;4.53;3.40;;;17.00;99.90;;;;;;5073604;28;20051;-49
2022/08/15 00:33:39;;;;;;;5.45;4.15;;;17.00;99.90;;;;;;5092316;28;20040;-48
2022/08/15 00:36:10;;;;;;;4.38;3.53;;;17.00;99.90;;;;;;5092427;28;20493;-50
2022/08/15 00:39:01;;;;;;;4.13;3.72;;;17.00;99.90;;;;;;5077210;28;20097;-49
2022/08/15 00:41:41;;;;;;;5.97;3.60;;;16.90;99.90;;;;;;5090966;28;20043;-49
2022/08/15 00:44:40;;;;;;;4.38;3.85;;;17.00;99.90;;;;;;5073676;28;20500;-49
2022/08/15 00:47:22;;;;;;;4.60;3.60;;;16.90;99.90;;;;;;5091645;28;20723;-50
2022/08/15 00:49:49;;;;;;;7.15;3.65;;;16.90;99.90;;;;;;5087555;28;20044;-48
2022/08/15 00:52:31;;;;;;;4.32;3.53;;;16.70;99.90;;;;;;5074031;28;20567;-50
2022/08/15 00:55:13;;;;;;;6.25;3.85;;;16.70;99.90;;;;;;5091902;28;20475;-50
2022/08/15 00:57:47;;;;;;;6.03;3.63;;;16.70;99.90;;;;;;5088847;28;20078;-52
2022/08/15 01:00:34;;;;;;;7.18;3.80;;;16.70;99.90;;;;;;5071537;28;20056;-48
2022/08/15 01:03:21;;;;;;;6.18;4.00;;;16.80;99.90;;;;;;5055777;28;20053;-48
2022/08/15 01:05:59;;;;;;;7.05;4.22;;;16.80;99.90;;;;;;5091076;28;20090;-50
2022/08/15 01:08:30;;;;;;;6.95;4.05;;;16.80;99.90;;;;;;5091899;28;20115;-49
2022/08/15 01:11:21;;;;;;;5.55;4.03;;;16.80;99.90;;;;;;5090667;28;20040;-50
2022/08/15 01:13:51;;;;;;;6.70;3.55;;;16.80;99.90;;;;;;5091254;28;20040;-48
2022/08/15 01:16:41;;;;;;;3.88;3.28;;;16.80;99.90;;;;;;5091947;28;20044;-49
2022/08/15 01:19:22;;;;;;;4.78;3.97;;;16.80;99.90;;;;;;5074748;28;20036;-49
2022/08/15 01:21:49;;;;;;;5.38;4.00;;;16.70;99.90;;;;;;5062096;28;20063;-48
2022/08/15 01:24:46;;;;;;;8.07;5.07;;;16.70;99.90;;;;;;5073424;28;20086;-49
2022/08/15 01:27:41;;;;;;;8.45;5.15;;;16.70;99.90;;;;;;5088844;28;20462;-48
2022/08/15 01:30:15;;;;;;;6.93;4.53;;;16.30;99.90;;;;;;5068716;28;20062;-49
2022/08/15 01:33:02;;;;;;;5.38;4.55;;;16.20;99.90;;;;;;5073612;28;20093;-49
2022/08/15 01:35:30;;;;;;;6.68;4.47;;;16.00;99.90;;;;;;5071019;28;20099;-51
2022/08/15 01:37:58;;;;;;;5.38;4.13;;;16.00;99.90;;;;;;5067456;28;20082;-49
2022/08/15 01:40:30;;;;;;;5.35;4.00;;;16.10;99.90;;;;;;5071073;28;20833;-49
2022/08/15 01:43:24;;;;;;;10.95;4.60;;;16.20;99.90;;;;;;5073278;28;20492;-49
2022/08/15 01:45:53;;;;;;;5.70;3.92;;;16.30;99.90;;;;;;5049920;28;20045;-48
2022/08/15 01:48:26;;;;;;;5.63;3.90;;;16.40;99.90;;;;;;5072947;28;20044;-49
2022/08/15 01:50:59;;;;;;;7.95;4.00;;;16.40;99.90;;;;;;5092333;28;20040;-49
2022/08/15 01:53:46;;;;;;;6.57;4.05;;;16.50;99.90;;;;;;5072307;28;20079;-50
2022/08/15 01:56:26;;;;;;;4.68;3.97;;;16.50;99.90;;;;;;5070231;28;20098;-49
2022/08/15 01:59:07;;;;;;;7.18;3.90;;;16.50;99.90;;;;;;5077509;28;20046;-50
2022/08/15 02:01:43;;;;;;;6.30;4.22;;;16.50;99.90;;;;;;5075322;28;20538;-49
2022/08/15 02:04:29;;;;;;;6.05;4.03;;;16.50;99.90;;;;;;5062853;28;20047;-49
2022/08/15 02:07:25;;;;;;;4.13;3.63;;;16.60;99.90;;;;;;5069029;28;20075;-53
2022/08/15 02:09:58;;;;;;;4.30;3.88;;;16.50;99.90;;;;;;5075128;28;20044;-49
2022/08/15 02:12:45;;;;;;;5.60;3.30;;;16.50;99.90;;;;;;5076684;28;20448;-50
2022/08/15 02:15:33;;;;;;;4.77;4.07;;;16.50;99.90;;;;;;5095168;28;20072;-49
2022/08/15 02:18:01;;;;;;;6.70;4.85;;;16.50;99.90;;;;;;5071636;28;20047;-49
2022/08/15 02:20:31;;;;;;;6.90;4.70;;;16.50;99.90;;;;;;5071702;28;20439;-49
2022/08/15 02:23:06;;;;;;;6.90;4.30;;;16.30;99.90;;;;;;5095373;28;20044;-49
2022/08/15 02:25:42;;;;;;;6.80;4.37;;;16.20;99.90;;;;;;5073081;28;20047;-50
2022/08/15 02:28:10;;;;;;;;;;;16.20;99.90;;;;;;5085346;28;20827;-50
2022/08/15 02:30:59;;;;;;;5.18;4.15;;;16.20;99.90;;;;;;5062525;28;19920;-49
2022/08/15 02:33:28;;;;;;;6.30;4.22;;;16.30;99.90;;;;;;5059716;28;20055;-49
2022/08/15 02:36:02;;;;;;;6.47;4.22;;;16.30;99.90;;;;;;5074723;28;20077;-48
2022/08/15 02:38:31;;;;;;;5.53;4.20;;;16.30;99.90;;;;;;5094453;28;20043;-48
2022/08/15 02:41:20;;;;;;;6.63;4.22;;;16.30;99.90;;;;;;5076203;28;20055;-50
2022/08/15 02:43:49;;;;;;;8.25;4.60;;;16.20;99.90;;;;;;5075125;28;20408;-48
2022/08/15 02:46:19;;;;;;;5.35;4.40;;;16.20;99.90;;;;;;5076040;28;20056;-51
2022/08/15 02:49:01;;;;;;;5.68;4.50;;;16.10;99.90;;;;;;5076260;28;20036;-49
2022/08/15 02:51:35;;;;;;;5.55;4.43;;;16.10;99.90;;;;;;5075166;28;20113;-50
2022/08/15 02:54:26;;;;;;;5.72;4.30;;;16.10;99.90;;;;;;5069170;28;20131;-49
2022/08/15 02:57:06;;;;;;;6.65;4.20;;;16.10;99.90;;;;;;5076153;28;20040;-50
2022/08/15 02:59:36;;;;;;;5.82;4.13;;;16.10;99.90;;;;;;5076092;28;20059;-49
2022/08/15 03:02:07;;;;;;;7.50;4.25;;;16.10;99.90;;;;;;5074098;28;20530;-51
2022/08/15 03:04:54;;;;;;;7.15;5.00;;;16.10;99.90;;;;;;5075600;28;20116;-50
2022/08/15 03:07:21;;;;;;;7.50;4.30;;;16.10;99.90;;;;;;5075921;28;20048;-49
2022/08/15 03:09:48;;;;;;;5.38;4.57;;;16.20;99.90;;;;;;5072130;28;20408;-48
2022/08/15 03:12:25;;;;;;;6.15;4.38;;;16.10;99.90;;;;;;5075627;28;20032;-49
2022/08/15 03:15:00;;;;;;;7.15;5.18;;;16.20;99.90;;;;;;5075830;28;20143;-49
2022/08/15 03:17:30;;;;;;;6.40;4.63;;;16.20;99.90;;;;;;5075995;28;20048;-49
2022/08/15 03:20:05;;;;;;;7.95;4.80;;;16.20;99.90;;;;;;5074735;28;20044;-49
2022/08/15 03:22:46;;;;;;;5.88;4.50;;;16.20;99.90;;;;;;5075363;28;20044;-50
2022/08/15 03:25:20;;;;;;;7.13;4.68;;;16.10;99.90;;;;;;5075248;28;20490;-51
2022/08/15 03:27:58;;;;;;;7.13;4.43;;;16.10;99.90;;;;;;5075803;28;20094;-49
2022/08/15 03:30:25;;;;;;;6.90;4.75;;;16.10;99.90;;;;;;5074276;28;20144;-49
2022/08/15 03:32:56;;;;;;;7.40;4.45;;;16.10;99.90;;;;;;5075220;28;20089;-48
2022/08/15 03:35:30;;;;;;;5.10;4.55;;;16.10;99.90;;;;;;5075629;28;20040;-49
2022/08/15 03:38:00;;;;;;;7.00;4.57;;;16.10;99.90;;;;;;5075742;28;20050;-48
2022/08/15 03:40:36;;;;;;;6.75;4.70;;;16.10;99.90;;;;;;5074919;28;20055;-51
2022/08/15 03:43:08;;;;;;;7.53;5.22;;;16.00;99.90;;;;;;5075409;28;20609;-48
2022/08/15 03:45:51;;;;;;;7.53;5.40;;;16.00;99.90;;;;;;5075351;28;20518;-49
2022/08/15 03:48:25;;;;;;;7.15;4.50;;;15.90;99.90;;;;;;5075773;28;20094;-49
2022/08/15 03:50:57;;;;;;;9.98;4.95;;;15.90;99.90;;;;;;5074543;28;20044;-48
2022/08/15 03:53:30;;;;;;;6.95;5.00;;;15.90;99.90;;;;;;5093259;28;20519;-50
2022/08/15 03:55:59;;;;;;;6.60;4.55;;;15.90;99.90;;;;;;5108416;22;20044;-52
2022/08/15 03:58:31;;;;;;;6.90;4.40;;;15.90;99.90;;;;;;5106155;28;20466;-51
2022/08/15 04:01:21;;;;;;;6.85;5.10;;;15.90;99.90;;;;;;5110935;28;20078;-50
2022/08/15 04:03:56;;;;;;;6.38;4.63;;;15.90;99.90;;;;;;5109881;28;20044;-49
2022/08/15 04:06:31;;;;;;;7.30;5.00;;;15.90;99.90;;;;;;5099612;28;20062;-52
2022/08/15 04:09:02;;;;;;;5.60;4.72;;;15.80;99.90;;;;;;5091449;28;20070;-49
2022/08/15 04:11:45;;;;;;;6.93;4.63;;;15.70;99.90;;;;;;5095152;28;20039;-53
2022/08/15 04:14:29;;;;;;;7.75;5.32;;;15.70;99.90;;;;;;5091044;28;20051;-51
2022/08/15 04:17:13;;;;;;;7.63;5.30;;;15.60;99.90;;;;;;5111868;28;20050;-49
2022/08/15 04:19:48;;;;;;;10.43;5.72;;;15.60;99.90;;;;;;5111030;28;20052;-50
2022/08/15 04:22:35;;;;;;;10.50;5.25;;;15.60;99.90;;;;;;5104818;28;20047;-53
2022/08/15 04:25:25;;;;;;;7.72;5.75;;;15.60;99.90;;;;;;5094755;28;20093;-50
2022/08/15 04:28:06;;;;;;;8.75;5.82;;;15.60;99.90;;;;;;5098190;28;20044;-50
2022/08/15 04:30:53;;;;;;;7.97;5.75;;;15.60;99.90;;;;;;5108373;28;20052;-50
2022/08/15 04:33:27;;;;;;;5.80;4.97;;;15.60;99.90;;;;;;5112929;28;20079;-52
2022/08/15 04:36:17;;;;;;;6.82;5.30;;;15.70;99.90;;;;;;5094615;28;20044;-50
2022/08/15 04:38:49;;;;;;;6.60;5.03;;;15.80;99.90;;;;;;5110808;28;20062;-49
2022/08/15 04:41:17;;;;;;;9.57;5.15;;;15.80;99.90;;;;;;5112355;28;20085;-53
2022/08/15 04:44:05;;;;;;;7.10;5.00;;;15.80;99.90;;;;;;5094587;28;20075;-49
2022/08/15 04:46:32;;;;;;;7.10;5.30;;;15.80;99.90;;;;;;5097374;28;20043;-53
2022/08/15 04:49:00;;;;;;;7.95;5.88;;;15.80;99.90;;;;;;5112192;28;20063;-49
2022/08/15 04:51:27;;;;;;;6.82;4.95;;;15.80;99.90;;;;;;5094040;28;20051;-50
2022/08/15 04:54:03;;;;;;;8.10;5.20;;;15.90;99.90;;;;;;5093555;28;20047;-50
2022/08/15 04:56:30;;;;;;;8.02;5.28;;;15.80;99.90;;;;;;5105043;28;20044;-49
2022/08/15 04:59:19;;;;;;;6.57;5.32;;;15.80;99.90;;;;;;5094259;28;20051;-50
2022/08/15 05:02:06;;;;;;;14.60;5.70;;;15.90;99.90;;;;;;5093673;28;20500;-50
2022/08/15 05:04:53;;;;;;;8.30;4.68;;;16.00;99.90;;;;;;5107357;28;20054;-51
2022/08/15 05:07:21;;;;;;;6.75;5.10;;;16.10;99.90;;;;;;5110822;28;20040;-51
2022/08/15 05:09:54;;;;;;;6.32;4.68;;;16.20;99.90;;;;;;5093616;28;20408;-49
2022/08/15 05:12:29;;;;;;;10.20;5.38;;;16.30;99.90;;;;;;5101455;28;20040;-49
2022/08/15 05:15:02;;;;;;;6.30;4.45;;;16.40;99.90;;;;;;5108947;28;20496;-51
2022/08/15 05:17:31;;;;;;;6.65;4.57;;;16.50;99.90;;;;;;5094004;28;20051;-50
2022/08/15 05:20:21;;;;;;;6.45;4.97;;;16.60;99.90;;;;;;5111910;27;20039;-49
2022/08/15 05:22:54;;;;;;;5.15;4.65;;;16.70;99.90;;;;;;5111818;28;20122;-53
2022/08/15 05:25:22;;;;;;;7.07;5.38;;;16.70;99.90;;;;;;5109996;28;20085;-52
2022/08/15 05:27:53;;;;;;;7.47;5.22;;;16.80;99.90;;;;;;5110183;28;20073;-52
2022/08/15 05:30:22;;;;;;;10.55;5.63;;;16.80;99.90;;;;;;5102956;28;20046;-49
2022/08/15 05:33:25;;;;;;;6.43;5.68;;;16.80;99.90;;;;;;5093869;28;20134;-52
2022/08/15 05:36:14;;;;;;;6.88;4.95;;;16.80;99.90;;;;;;5108170;28;20048;-51
2022/08/15 05:39:21;;;;;;;8.75;4.90;;;16.80;99.90;;;;;;5093211;28;20058;-50
2022/08/15 05:42:10;;;;;;;7.93;5.03;;;16.80;99.90;;;;;;5103480;28;20051;-49
2022/08/15 05:45:01;;;;;;;9.07;5.15;;;16.80;99.90;;;;;;5101864;28;20518;-51
2022/08/15 05:47:35;;;;;;;5.82;4.97;;;16.90;99.90;;;;;;5104298;28;20045;-52
2022/08/15 05:50:22;;;;;;;8.93;4.80;;;17.00;99.90;;;;;;5091191;28;20272;-50
2022/08/15 05:53:17;;;;;;;7.35;4.97;;;17.00;99.90;;;;;;5090179;28;20041;-49
2022/08/15 05:56:03;;;;;;;8.07;5.82;;;17.10;99.90;;;;;;5101999;28;20044;-49
2022/08/15 05:59:01;;;;;;;10.80;5.50;;;17.10;99.90;;;;;;5108501;28;20088;-52
2022/08/15 06:01:45;;;;;;;7.93;6.10;;;17.20;99.90;;;;;;5113373;28;20043;-49
2022/08/15 06:04:57;;;;;;;12.57;6.32;;;17.20;99.90;;;;;;5123149;28;20499;-53
2022/08/15 06:07:26;;;;;;;7.93;5.85;;;17.10;99.90;;;;;;5103852;28;20500;-49
2022/08/15 06:10:25;;;;;;;10.50;6.38;;;17.10;99.90;;;;;;5093018;28;20043;-51
2022/08/15 06:13:19;;;;;;;8.85;6.28;;;17.20;99.90;;;;;;5125605;28;20075;-51
2022/08/15 06:15:50;;;;;;;8.18;5.30;;;17.20;99.90;;;;;;5113512;28;20047;-50
2022/08/15 06:18:23;;;;;;;9.93;6.20;;;17.30;99.90;;;;;;5130847;28;20422;-50
2022/08/15 06:21:09;;;;;;;;;;;17.30;99.90;;;;;;5113187;28;20065;-49
2022/08/15 06:23:38;;;;;;;9.05;5.82;;;17.40;99.90;;;;;;5113714;28;20368;-49
2022/08/15 06:26:17;;;;;;;8.27;6.75;;;17.40;99.90;;;;;;5113533;28;20039;-51
2022/08/15 06:28:59;;;;;;;8.05;6.20;;;17.50;99.90;;;;;;5113376;28;20047;-53
2022/08/15 06:31:41;;;;;;;10.93;7.10;;;17.70;99.90;;;;;;5112655;28;20073;-50
2022/08/15 06:34:39;;;;;;;10.40;7.20;;;18.00;99.90;;;;;;5110159;28;20404;-50
2022/08/15 06:37:38;;;;;;;9.93;6.65;;;18.30;99.90;;;;;;5110780;27;20067;-49
2022/08/15 06:40:48;;;;;;;10.85;7.35;;;18.50;99.90;;;;;;5110746;27;20540;-50
2022/08/15 06:43:19;;;;;;;8.02;6.63;;;18.80;99.90;;;;;;5119931;27;20405;-51
2022/08/15 06:46:07;;;;;;;8.20;6.40;;;18.90;99.90;;;;;;5120005;27;20410;-51
2022/08/15 06:48:56;;;;;;;8.15;6.30;;;19.20;99.90;;;;;;5127194;27;20042;-51
2022/08/15 06:51:36;;;;;;;9.10;5.90;;;19.50;99.90;;;;;;5119678;27;20058;-49
2022/08/15 06:54:20;;;;;;;10.13;6.57;;;19.80;99.90;;;;;;5124373;27;20042;-56
2022/08/15 06:57:21;;;;;;;9.45;6.72;;;20.10;99.90;;;;;;5122053;27;20042;-50
2022/08/15 07:00:10;;;;;;;7.25;6.47;;;20.40;99.90;;;;;;5121444;27;20035;-50
2022/08/15 07:03:30;;;;;;;8.18;5.97;;;20.70;99.90;;;;;;5125900;27;20087;-50
2022/08/15 07:06:12;;;;;;;10.80;6.30;;;20.80;99.90;;;;;;5122618;27;20046;-52
2022/08/15 07:08:45;;;;;;;7.88;5.72;;;20.90;99.90;;;;;;5125682;27;20050;-50
2022/08/15 07:11:38;;;;;;;6.90;5.90;;;20.90;99.90;;;;;;5107983;27;20068;-53
2022/08/15 07:14:36;;;;;;;10.48;6.38;;;20.90;99.90;;;;;;5122322;27;20035;-51
2022/08/15 07:17:35;;;;;;;13.65;6.20;;;20.80;99.90;;;;;;5127738;27;20095;-50
2022/08/15 07:20:08;;;;;;;7.85;5.70;;;21.00;99.90;;;;;;5143462;27;20486;-55
2022/08/15 07:22:55;;;;;;;12.68;5.50;;;21.10;99.90;;;;;;5140264;27;20035;-49
2022/08/15 07:25:32;;;;;;;7.43;5.65;;;21.30;99.90;;;;;;5116892;27;20502;-49
2022/08/15 07:28:03;;;;;;;6.63;5.93;;;21.40;99.90;;;;;;5121228;27;20560;-50
2022/08/15 07:31:11;;;;;;;6.38;5.53;;;21.40;99.90;;;;;;5121249;27;20627;-51
2022/08/15 07:33:51;;;;;;;9.32;5.97;;;21.20;99.90;;;;;;5044623;28;20048;-49
2022/08/15 07:36:30;;;;;;;7.25;5.85;;;21.30;99.90;;;;;;5060084;28;20036;-51
2022/08/15 07:39:26;;;;;;;8.40;5.50;;;21.50;99.90;;;;;;5107494;27;20523;-51
2022/08/15 07:42:13;;;;;;;7.30;5.53;;;21.60;99.90;;;;;;5108904;27;20130;-50
2022/08/15 07:45:01;;;;;;;6.85;5.72;;;22.00;99.90;;;;;;5134150;27;20406;-49
2022/08/15 07:47:34;;;;;;;7.63;6.03;;;22.20;99.90;;;;;;5115286;27;20130;-50
2022/08/15 07:50:10;;;;;;;7.15;5.68;;;22.30;99.90;;;;;;5130184;27;20074;-50
2022/08/15 07:52:39;;;;;;;6.55;5.53;;;22.50;99.90;;;;;;5115690;27;20039;-51
2022/08/15 07:55:19;;;;;;;5.85;5.20;;;22.60;99.90;;;;;;5115005;27;20046;-51
2022/08/15 07:58:19;;;;;;;6.63;5.80;;;22.60;99.90;;;;;;5115404;27;20055;-54
2022/08/15 08:01:24;;;;;;;9.20;6.07;;;22.60;99.90;;;;;;5134942;27;20239;-49
2022/08/15 08:04:15;;;;;;;8.80;6.20;;;22.50;99.90;;;;;;5142977;27;20068;-49
2022/08/15 08:06:58;;;;;;;7.60;5.57;;;22.40;99.90;;;;;;5140290;27;20035;-52
2022/08/15 08:09:48;;;;;;;9.18;5.32;;;22.20;99.90;;;;;;5130731;27;20384;-50
2022/08/15 08:12:35;;;;;;;10.45;5.43;;;22.20;99.90;;;;;;5135750;27;20049;-49
2022/08/15 08:15:40;;;;;;;8.88;5.82;;;22.30;99.90;;;;;;5119883;27;20549;-51
2022/08/15 08:18:38;;;;;;;9.32;6.18;;;22.60;99.90;;;;;;5115056;27;20043;-50
2022/08/15 08:21:15;;;;;;;6.25;5.50;;;22.80;99.90;;;;;;5114762;27;20047;-51
2022/08/15 08:23:59;;;;;;;8.40;6.10;;;22.80;99.90;;;;;;5130201;27;20081;-49
2022/08/15 08:26:37;;;;;;;7.65;6.18;;;22.90;99.90;;;;;;5131878;27;20054;-50
2022/08/15 08:29:35;;;;;;;6.97;5.40;;;22.90;99.90;;;;;;5114869;27;20051;-49
2022/08/15 08:32:24;;;;;;;7.18;5.82;;;22.80;99.90;;;;;;5139664;27;20035;-54
2022/08/15 08:35:10;;;;;;;6.40;4.97;;;23.00;99.90;;;;;;5144288;27;20748;-50
2022/08/15 08:37:48;;;;;;;7.88;5.93;;;23.20;99.90;;;;;;5120743;27;20059;-51
2022/08/15 08:43:27;;;;;;;6.35;5.70;;;23.80;99.90;;;;;;5144642;27;20049;-52
2022/08/15 08:46:10;;;;;;;6.15;5.55;;;24.10;99.90;;;;;;5123687;27;20053;-49
2022/08/15 08:49:23;;;;;;;5.68;4.90;;;24.10;99.90;;;;;;5141863;27;20506;-50
2022/08/15 08:52:40;;;;;;;8.30;5.40;;;24.10;99.90;;;;;;5140054;27;20043;-49
2022/08/15 08:55:18;;;;;;;5.85;5.18;;;24.10;99.90;;;;;;5151650;27;20053;-52
2022/08/15 08:58:07;;;;;;;7.75;5.07;;;24.30;99.90;;;;;;5129082;27;20046;-49
2022/08/15 09:00:47;;;;;;;5.20;4.57;;;24.20;99.90;;;;;;5110771;28;20470;-51
2022/08/15 09:03:27;;;;;;;5.57;5.05;;;24.00;99.90;;;;;;5112358;28;20083;-50
2022/08/15 09:05:57;;;;;;;7.07;5.10;;;23.70;99.90;;;;;;5131113;27;20098;-49
2022/08/15 09:08:32;;;;;;;6.78;4.95;;;23.60;99.90;;;;;;5132162;27;20039;-51
2022/08/15 09:11:09;;;;;;;6.43;4.70;;;23.50;99.90;;;;;;5140219;27;20457;-52
2022/08/15 09:13:43;;;;;;;7.00;4.70;;;23.30;99.90;;;;;;5134008;27;20042;-50
2022/08/15 09:16:33;;;;;;;7.85;4.88;;;23.20;99.90;;;;;;5132038;27;20376;-51
2022/08/15 09:19:12;;;;;;;5.78;5.18;;;23.30;99.90;;;;;;5128311;27;20054;-52
2022/08/15 09:21:42;;;;;;;6.45;4.80;;;23.40;99.90;;;;;;5131581;27;20079;-51
2022/08/15 09:24:12;;;;;;;6.18;4.97;;;23.60;99.90;;;;;;5131237;27;20047;-50
2022/08/15 09:27:12;;;;;;;6.90;5.10;;;23.80;99.90;;;;;;5132373;27;20043;-50
2022/08/15 09:29:44;;;;;;;6.50;4.90;;;24.10;99.90;;;;;;5131694;27;20043;-53
2022/08/15 09:32:28;;;;;;;7.18;4.57;;;24.20;99.90;;;;;;5125566;27;20574;-50
2022/08/15 09:35:04;;;;;;;5.10;4.60;;;24.40;99.90;;;;;;5132373;27;20035;-51
2022/08/15 09:37:59;;;;;;;5.78;4.57;;;24.60;99.90;;;;;;5129716;27;20067;-52
2022/08/15 09:40:32;;;;;;;5.00;4.50;;;24.60;99.90;;;;;;5130634;27;20502;-52
2022/08/15 09:43:44;;;;;;;6.18;4.22;;;24.70;99.90;;;;;;5119006;28;20108;-51
2022/08/15 09:46:33;;;;;;;7.68;4.25;;;24.90;99.90;;;;;;5123057;27;20047;-52
2022/08/15 09:49:30;;;;;;;5.53;4.40;;;25.00;99.80;;;;;;5130196;27;20047;-51
2022/08/15 09:52:41;;;;;;;9.60;3.80;;;25.10;99.90;;;;;;5133911;27;20065;-51
2022/08/15 09:55:32;;;;;;;4.60;3.83;;;25.30;99.90;;;;;;5110918;27;20059;-50
2022/08/15 09:58:20;;;;;;;5.55;4.07;;;25.40;99.90;;;;;;5101080;22;20048;-52
2022/08/15 10:01:03;;;;;;;6.47;3.78;;;25.50;99.90;;;;;;5095166;28;20110;-53
2022/08/15 10:03:44;;;;;;;5.93;3.72;;;25.60;99.90;;;;;;5099269;28;20055;-53
2022/08/15 10:06:16;;;;;;;7.25;3.90;;;25.70;99.90;;;;;;5099533;28;20038;-50
2022/08/15 10:09:02;;;;;;;4.60;4.10;;;25.80;99.60;;;;;;5085655;28;20032;-53
2022/08/15 10:11:41;;;;;;;8.70;4.15;;;25.80;99.90;;;;;;5083103;28;20416;-50
2022/08/15 10:14:39;;;;;;;6.65;3.95;;;25.90;99.90;;;;;;5093591;28;20040;-50
2022/08/15 10:17:37;;;;;;;3.35;3.05;;;25.90;99.30;;;;;;5086482;28;20045;-50
2022/08/15 10:20:29;;;;;;;5.10;3.65;;;25.70;99.30;;;;;;5087117;28;20040;-50
2022/08/15 10:23:00;;;;;;;7.57;3.95;;;25.70;98.90;;;;;;5090540;28;20751;-53
2022/08/15 10:25:36;;;;;;;5.95;4.45;;;25.40;99.00;;;;;;5093634;28;20051;-50
2022/08/15 10:28:11;;;;;;;9.35;5.38;;;25.20;99.10;;;;;;5094307;28;20044;-50
2022/08/15 10:30:58;;;;;;;6.10;4.68;;;25.00;98.90;;;;;;5087577;28;20056;-50
2022/08/15 10:33:33;;;;;;;7.25;5.10;;;24.90;99.00;;;;;;5094095;28;20058;-51
2022/08/15 10:36:21;;;;;;;10.82;4.53;;;24.90;99.10;;;;;;5094271;28;20048;-50
2022/08/15 10:39:17;;;;;;;7.50;4.70;;;24.90;98.80;;;;;;5093009;28;20043;-52
2022/08/15 10:42:08;;;;;;;8.27;4.97;;;24.70;99.10;;;;;;5079513;28;20032;-51
2022/08/15 10:45:13;;;;;;;7.60;4.90;;;24.70;99.20;;;;;;5088514;28;20739;-49
2022/08/15 10:47:48;;;;;;;6.93;4.95;;;24.50;99.20;;;;;;5086410;28;20099;-50
2022/08/15 10:50:46;;;;;;;5.70;5.20;;;24.50;99.30;;;;;;5080954;28;20042;-52
2022/08/15 10:53:40;;;;;;;5.80;5.20;;;24.40;99.50;;;;;;5094171;28;20048;-50
2022/08/15 10:56:26;;;;;;;5.55;4.88;;;24.40;99.70;;;;;;5087694;28;20044;-51
2022/08/15 10:59:18;;;;;;;7.60;4.95;;;24.40;99.90;;;;;;5083173;28;20043;-52
2022/08/15 11:01:46;;;;;;;9.05;5.40;;;24.40;99.80;;;;;;5093183;28;20579;-50
2022/08/15 11:04:35;;;;;;;5.70;5.07;;;24.40;99.90;;;;;;5082551;28;20067;-51
2022/08/15 11:07:28;;;;;;;7.10;5.15;;;24.40;99.90;;;;;;5081288;28;20094;-50
2022/08/15 11:09:58;;;;;;;5.63;4.88;;;24.40;99.80;;;;;;5093466;28;20036;-50
2022/08/15 11:12:28;;;;;;;7.90;5.15;;;24.20;99.90;;;;;;5087146;28;20474;-52
2022/08/15 11:15:00;;;;;;;6.80;5.60;;;24.20;99.90;;;;;;5091498;28;20086;-51
2022/08/15 11:17:32;;;;;;;6.07;5.40;;;24.20;99.90;;;;;;5085731;28;20040;-53
2022/08/15 11:20:19;;;;;;;7.55;5.50;;;24.30;99.90;;;;;;5087020;28;20376;-50
2022/08/15 11:22:54;;;;;;;;;;;24.30;99.80;;;;;;5089663;28;20043;-50
2022/08/15 11:25:28;;;;;;;6.00;5.40;;;24.40;99.60;;;;;;5089547;28;19920;-52
2022/08/15 11:28:12;;;;;;;5.75;5.15;;;24.50;99.00;;;;;;5087675;28;20420;-51
2022/08/15 11:31:11;;;;;;;7.25;5.10;;;24.50;98.90;;;;;;5088600;28;20044;-51
2022/08/15 11:33:40;;;;;;;8.77;5.60;;;24.70;99.40;;;;;;5091733;28;20063;-50
2022/08/15 11:36:09;;;;;;;5.88;5.10;;;24.90;98.60;;;;;;5090014;28;20095;-52
2022/08/15 11:38:41;;;;;;;5.32;4.70;;;25.00;98.50;;;;;;5090085;28;20054;-52
2022/08/15 11:41:30;;;;;;;7.15;5.25;;;25.00;98.20;;;;;;5090264;28;20585;-50
2022/08/15 11:44:01;;;;;;;6.38;5.18;;;25.00;97.60;;;;;;5090715;28;20043;-51
2022/08/15 11:46:28;;;;;;;5.88;5.28;;;25.10;97.70;;;;;;5089462;28;20047;-50
2022/08/15 11:49:07;;;;;;;5.30;4.80;;;25.20;97.70;;;;;;5068792;28;20039;-52
2022/08/15 11:51:42;;;;;;;7.63;4.97;;;25.50;96.90;;;;;;5090674;28;20054;-51
2022/08/15 11:54:29;;;;;;;5.57;5.00;;;25.80;96.70;;;;;;5086685;28;20040;-51
2022/08/15 11:57:06;;;;;;;5.28;4.38;;;26.00;96.60;;;;;;5086253;28;20040;-52
2022/08/15 12:00:05;;;;;;;4.90;4.38;;;26.10;96.10;;;;;;5082110;28;20086;-52
2022/08/15 12:02:34;;;;;;;6.72;4.43;;;26.40;96.20;;;;;;5090434;28;20040;-51
2022/08/15 12:05:17;;;;;;;5.38;4.10;;;26.30;96.20;;;;;;5084308;28;20032;-50
2022/08/15 12:08:04;;;;;;;5.00;3.30;;;26.40;97.40;;;;;;5069117;28;20097;-51
2022/08/15 12:11:05;;;;;;;5.90;2.78;;;26.50;97.20;;;;;;5090445;28;20524;-51
2022/08/15 12:13:34;;;;;;;4.85;2.47;;;26.70;96.60;;;;;;5085528;28;20044;-51
2022/08/15 12:16:02;;;;;;;5.07;2.70;;;26.90;96.60;;;;;;5091186;28;20105;-51
2022/08/15 12:18:49;;;;;;;4.63;2.60;;;26.80;95.50;;;;;;5083569;28;20571;-52
2022/08/15 12:21:20;;;;;;;3.03;2.63;;;26.40;96.50;;;;;;5091815;28;20047;-51
2022/08/15 12:23:54;;;;;;;3.72;3.20;;;26.00;96.90;;;;;;5092371;28;20048;-52
2022/08/15 12:26:26;;;;;;;5.32;3.70;;;25.80;97.20;;;;;;5092019;28;20552;-50
2022/08/15 12:29:13;;;;;;;5.53;3.30;;;25.80;97.20;;;;;;5091623;28;20094;-52
2022/08/15 12:31:41;;;;;;;5.40;3.30;;;26.10;98.00;;;;;;5090630;28;20043;-52
2022/08/15 12:34:12;;;;;;;4.22;3.83;;;26.60;97.10;;;;;;5086012;28;20046;-51
2022/08/15 12:37:01;;;;;;;6.82;4.35;;;27.00;96.80;;;;;;5089714;28;20056;-50
2022/08/15 12:39:36;;;;;;;5.72;4.18;;;27.70;95.40;;;;;;5091964;28;20115;-53
2022/08/15 12:42:10;;;;;;;5.05;4.13;;;28.10;94.50;;;;;;5088654;28;20033;-50
2022/08/15 12:45:00;;;;;;;7.53;4.53;;;28.30;94.40;;;;;;5080732;28;20099;-51
2022/08/15 12:47:31;;;;;;;4.38;3.75;;;28.40;93.50;;;;;;5066786;28;20044;-52
2022/08/15 12:50:01;;;;;;;6.13;3.97;;;28.40;94.50;;;;;;5080858;28;20037;-53
2022/08/15 12:52:28;;;;;;;7.90;3.75;;;28.50;95.10;;;;;;5091549;28;20039;-55
2022/08/15 12:54:56;;;;;;;5.30;3.40;;;28.20;94.70;;;;;;5090220;28;20047;-50
2022/08/15 12:57:25;;;;;;;5.55;3.58;;;28.10;93.70;;;;;;5087792;28;20044;-51
2022/08/15 13:00:12;;;;;;;4.88;3.80;;;28.10;94.40;;;;;;5079701;28;20044;-51
2022/08/15 13:03:13;;;;;;;4.53;3.60;;;28.00;94.70;;;;;;5077671;28;20097;-52
2022/08/15 13:05:56;;;;;;;9.40;4.03;;;28.20;94.30;;;;;;5091612;28;20489;-53
2022/08/15 13:08:42;;;;;;;4.20;3.40;;;28.70;94.10;;;;;;5088564;28;20044;-53
2022/08/15 13:11:19;;;;;;;7.32;3.67;;;28.90;93.10;;;;;;5087224;28;20082;-50
2022/08/15 13:13:51;;;;;;;4.07;3.50;;;29.00;93.20;;;;;;5088485;28;20036;-53
2022/08/15 13:16:21;;;;;;;5.50;3.40;;;29.10;92.60;;;;;;5086691;28;20040;-50
2022/08/15 13:19:14;;;;;;;5.00;4.00;;;28.90;93.00;;;;;;5078626;28;20032;-53
2022/08/15 13:24:54;;;;;;;4.03;3.55;;;28.70;93.40;;;;;;5090336;28;20109;-51
2022/08/15 13:27:23;;;;;;;7.80;3.45;;;28.60;92.70;;;;;;5090062;28;20090;-52
2022/08/15 13:29:54;;;;;;;6.68;2.95;;;28.60;91.80;;;;;;5082238;28;20132;-51
2022/08/15 13:32:23;;;;;;;3.75;3.00;;;28.20;91.60;;;;;;5088652;28;20118;-52
2022/08/15 13:34:50;;;;;;;6.68;3.28;;;27.90;91.20;;;;;;5087978;28;20036;-53
2022/08/15 13:37:25;;;;;;;4.68;3.25;;;27.80;91.50;;;;;;5090548;28;20102;-50
2022/08/15 13:40:18;;;;;;;4.32;3.90;;;27.90;91.60;;;;;;5085289;28;20562;-50
2022/08/15 13:42:59;;;;;;;4.78;3.08;;;27.70;92.20;;;;;;5086718;28;20074;-50
2022/08/15 13:45:38;;;;;;;3.88;3.10;;;27.60;92.10;;;;;;5086474;28;20504;-52
2022/08/15 13:48:37;;;;;;;4.88;3.00;;;27.90;91.80;;;;;;5094240;28;20686;-51
2022/08/15 13:51:19;;;;;;;3.15;2.80;;;28.20;91.50;;;;;;5094944;28;20048;-50
2022/08/15 13:54:06;;;;;;;2.90;2.33;;;28.10;91.80;;;;;;5088421;28;20032;-50
2022/08/15 13:56:53;;;;;;;2.83;2.53;;;28.00;90.60;;;;;;5094747;28;20040;-50
2022/08/15 13:59:22;;;;;;;5.07;3.00;;;27.90;90.90;;;;;;5095462;28;20044;-50
2022/08/15 14:01:51;;;;;;;6.03;2.92;;;27.80;91.20;;;;;;5096570;28;20040;-51
2022/08/15 14:04:25;;;;;;;4.38;3.10;;;27.60;90.70;;;;;;5095026;28;20045;-51
2022/08/15 14:06:55;;;;;;;4.82;2.83;;;27.40;90.50;;;;;;5086108;28;20463;-56